C Q S — MCES5 — position and weather

sailwx.info

Track history (hours):
 
Tides and Currents Weather Stations Pressure Air Temp Water Temp Dewpoint Dewpoint Depression Visibility Wind Speed Wind Dir Waves Ship Positions

C Q S

Last reported at 2017-Nov-25 22:24 UTC. Time now 2017-Dec-16 16:43 UTC.
Position N 28°57' W 015°48'.
Warning: this ship's position is 20 days out of date.

Length 32 m.

Type: Sailing vessel. MMSI: 232012421.

Date/timePositionNaut miles runAvg speedWind from/ knotsBaromVisibWave heightAir tempDewpointWater temp
2017-Nov-25 22:24N 28°57' W 015°48'713.6
2017-Nov-25 21:54N 28°56' W 015°41'815.5
2017-Nov-25 21:22N 28°54' W 015°31'714.9
2017-Nov-25 20:54N 28°53' W 015°24'714.2
2017-Nov-25 20:24N 28°51' W 015°16'614.8
2017-Nov-25 19:59N 28°50' W 015°09'816.1
2017-Nov-25 19:30N 28°48' W 015°00'815.6
2017-Nov-25 19:00N 28°47' W 014°51'815.3
2017-Nov-25 18:30N 28°47' W 014°43'2213.2
2017-Nov-25 16:49N 28°51' W 014°18'  
2017-Nov-18 17:31N 35°57' W 005°23'110.7
2017-Nov-18 17:25N 35°57' W 005°22'4 8.7
2017-Nov-18 16:59N 35°55' W 005°17'  
Track history (hours):
 
Tides and Currents Weather Stations Pressure Air Temp Water Temp Dewpoint Dewpoint Depression Visibility Wind Speed Wind Dir Waves Ship Positions

C Q S

Last reported at 2017-Nov-25 22:24 UTC. Time now 2017-Dec-16 16:43 UTC.
Position N 28°57' W 015°48'.
Warning: this ship's position is 20 days out of date.

Length 32 m.

Type: Sailing vessel. MMSI: 232012421.

Date/timePositionNaut miles runAvg speedWind from/ knotsBaromVisibWave heightAir tempDewpointWater temp
2017-Nov-25 22:24N 28°57' W 015°48'713.6
2017-Nov-25 21:54N 28°56' W 015°41'815.5
2017-Nov-25 21:22N 28°54' W 015°31'714.9
2017-Nov-25 20:54N 28°53' W 015°24'714.2
2017-Nov-25 20:24N 28°51' W 015°16'614.8
2017-Nov-25 19:59N 28°50' W 015°09'816.1
2017-Nov-25 19:30N 28°48' W 015°00'815.6
2017-Nov-25 19:00N 28°47' W 014°51'815.3
2017-Nov-25 18:30N 28°47' W 014°43'2213.2
2017-Nov-25 16:49N 28°51' W 014°18'  
2017-Nov-18 17:31N 35°57' W 005°23'110.7
2017-Nov-18 17:25N 35°57' W 005°22'4 8.7
2017-Nov-18 16:59N 35°55' W 005°17'  

Dump ship's entire track history